KTOB

Dodge Center Airport

Dodge Center, Minnesota, USA
METAR KTOB 191135Z AUTO 14007KT 5SM BR OVC005 16/16 A2998 RMK AO2
Observed Flight Rules
Sep-19 @ 11:35 UTC (7 minutes ago) Instrument Flight Rules
Wind Visibility Clouds Conditions
140° at 7 knots 5 miles
  • Overcast at 500' AGL
  • Mist
Temperatures Readings
Current 16°C / 61°F
Dewpoint 16°C / 61°F
Humidity 100%
Altimeter 29.98" Hg
Pressure 1015 hPa
Elevation 398
METAR KTOB 191135Z AUTO 14007KT 5SM BR OVC005 16/16 A2998 RMK AO2
Observed Flight Rules
Sep-19 @ 11:35 UTC
(7 minutes ago)
IFR
Wind Visibility
140° at 7 knots 5 miles
Clouds
  • Overcast at 500' AGL
Conditions
  • Mist
Temperature Dewpoint
16°C / 61°F 16°C / 61°F
Humidity Altimeter Pressure
100% 29.98" Hg 1015 hPa